Time;durP1;ratioP1;P1;durP2;ratioP2;P2;SDS_P1;SDS_P2;PMS_P1;PMS_P2;Temp;Humidity;BMP_temperature;BMP_pressure;BME280_temperature;BME280_humidity;BME280_pressure;Samples;Min_cycle;Max_cycle;Signal;HPM_P1;HPM_P2
2022/11/23 00:01:26;;;;;;;12.30;5.55;;;6.60;99.90;;;;;;5096587;28;20046;-88
2022/11/23 00:03:56;;;;;;;10.20;5.25;;;6.60;99.90;;;;;;5096645;28;20040;-89
2022/11/23 00:06:24;;;;;;;16.20;6.00;;;6.60;99.90;;;;;;5114056;28;20047;-89
2022/11/23 00:08:52;;;;;;;10.82;5.63;;;6.60;99.90;;;;;;5097507;28;20066;-88
2022/11/23 00:11:20;;;;;;;11.10;6.00;;;6.70;99.90;;;;;;5096975;28;20128;-88
2022/11/23 00:13:47;;;;;;;11.88;6.28;;;6.70;99.90;;;;;;5063658;28;20047;-90
2022/11/23 00:16:33;;;;;;;14.18;6.28;;;7.00;99.90;;;;;;5063626;28;20071;-89
2022/11/23 00:19:00;;;;;;;;;;;6.70;99.90;;;;;;5096924;28;20046;-89
2022/11/23 00:21:29;;;;;;;10.02;5.63;;;6.70;99.90;;;;;;5113421;28;19920;-89
2022/11/23 00:23:56;;;;;;;10.98;6.13;;;6.70;99.90;;;;;;5112808;28;20110;-89
2022/11/23 00:26:23;;;;;;;13.60;6.55;;;6.70;99.90;;;;;;5096526;28;20036;-89
2022/11/23 00:28:50;;;;;;;14.18;6.60;;;6.80;99.90;;;;;;5079989;28;20576;-89
2022/11/23 00:31:18;;;;;;;11.25;6.05;;;6.70;99.90;;;;;;5079493;28;20055;-87
2022/11/23 00:33:51;;;;;;;10.40;6.28;;;6.70;99.90;;;;;;5096405;28;20044;-90
2022/11/23 00:36:19;;;;;;;10.55;6.28;;;6.70;99.90;;;;;;5096344;28;20068;-89
2022/11/23 00:38:47;;;;;;;11.05;6.18;;;6.80;99.90;;;;;;5112640;28;20048;-89
2022/11/23 00:41:16;;;;;;;10.05;6.38;;;6.80;99.90;;;;;;5096218;28;20043;-90
2022/11/23 00:43:44;;;;;;;13.05;6.68;;;6.80;99.90;;;;;;5095742;28;20105;-89
2022/11/23 00:46:19;;;;;;;11.48;6.15;;;6.80;99.90;;;;;;5063476;28;20088;-88
2022/11/23 00:48:48;;;;;;;10.52;6.45;;;6.80;99.90;;;;;;5091283;28;20032;-89
2022/11/23 00:51:18;;;;;;;13.30;6.53;;;6.80;99.90;;;;;;5108243;28;20032;-89
2022/11/23 00:53:45;;;;;;;12.82;6.88;;;6.80;99.90;;;;;;5096135;28;20126;-89
2022/11/23 00:56:12;;;;;;;14.57;6.60;;;7.00;99.90;;;;;;5079447;28;20123;-89
2022/11/23 00:58:39;;;;;;;10.55;6.22;;;6.90;99.90;;;;;;5078834;28;20048;-89
2022/11/23 01:01:09;;;;;;;12.60;6.88;;;6.90;99.90;;;;;;5079327;28;20036;-90
2022/11/23 01:03:38;;;;;;;11.65;6.38;;;6.90;99.90;;;;;;5095813;28;20093;-88
2022/11/23 01:06:10;;;;;;;15.18;6.82;;;7.10;99.90;;;;;;5079239;28;20044;-88
2022/11/23 01:08:38;;;;;;;13.05;6.00;;;6.90;99.90;;;;;;5096112;28;20042;-89
2022/11/23 01:11:11;;;;;;;10.43;5.78;;;7.10;99.90;;;;;;5112604;28;20131;-89
2022/11/23 01:13:39;;;;;;;10.15;6.10;;;6.90;99.90;;;;;;5095440;28;20052;-88
2022/11/23 01:16:13;;;;;;;15.50;6.15;;;6.90;99.90;;;;;;5078702;28;20078;-90
2022/11/23 01:18:40;;;;;;;11.10;6.30;;;6.90;99.90;;;;;;5075395;28;20047;-89
2022/11/23 01:21:07;;;;;;;12.73;6.63;;;7.20;99.90;;;;;;5058810;28;20041;-89
2022/11/23 01:23:34;;;;;;;13.70;6.50;;;6.90;99.90;;;;;;5075002;28;20397;-89
2022/11/23 01:26:08;;;;;;;10.77;5.95;;;6.90;99.90;;;;;;5058779;28;20045;-89
2022/11/23 01:28:37;;;;;;;12.63;6.25;;;7.00;99.90;;;;;;5092040;28;20090;-87
2022/11/23 01:31:06;;;;;;;11.35;6.32;;;7.00;99.90;;;;;;5111619;28;20547;-89
2022/11/23 01:33:33;;;;;;;12.63;6.85;;;7.00;99.90;;;;;;5095022;28;20040;-89
2022/11/23 01:36:00;;;;;;;10.52;6.53;;;7.00;99.90;;;;;;5062305;28;20036;-89
2022/11/23 01:38:26;;;;;;;9.98;6.32;;;7.10;99.90;;;;;;5078795;28;20046;-89
2022/11/23 01:40:53;;;;;;;15.70;6.15;;;7.00;99.90;;;;;;5094948;28;20073;-90
2022/11/23 01:43:20;;;;;;;11.30;6.28;;;7.20;99.90;;;;;;5095221;28;20752;-89
2022/11/23 01:45:56;;;;;;;12.15;6.22;;;7.00;99.90;;;;;;5078246;28;20074;-90
2022/11/23 01:48:35;;;;;;;15.18;6.80;;;7.00;99.90;;;;;;5078415;28;20067;-90
2022/11/23 01:51:05;;;;;;;12.80;6.18;;;7.00;99.90;;;;;;5111861;28;20039;-90
2022/11/23 01:53:32;;;;;;;10.95;6.03;;;7.00;99.90;;;;;;5095397;28;20044;-89
2022/11/23 01:56:02;;;;;;;13.20;6.53;;;7.00;99.90;;;;;;5061970;28;20048;-89
2022/11/23 01:58:31;;;;;;;13.65;6.50;;;7.00;99.90;;;;;;5095093;28;20035;-90
2022/11/23 02:00:58;;;;;;;11.57;6.50;;;7.00;99.90;;;;;;5094789;28;20040;-89
2022/11/23 02:03:26;;;;;;;13.57;7.00;;;7.40;99.90;;;;;;5094748;28;20044;-90
2022/11/23 02:05:59;;;;;;;10.95;6.03;;;7.50;99.90;;;;;;5077793;28;20571;-89
2022/11/23 02:08:28;;;;;;;13.48;7.00;;;7.00;99.90;;;;;;5094780;28;20043;-90
2022/11/23 02:10:57;;;;;;;10.85;6.28;;;7.00;99.90;;;;;;5110653;28;20071;-88
2022/11/23 02:13:26;;;;;;;11.30;6.25;;;7.10;99.90;;;;;;5094441;28;20039;-90
2022/11/23 02:15:54;;;;;;;13.80;5.93;;;7.00;99.90;;;;;;5094184;28;20086;-90
2022/11/23 02:18:28;;;;;;;10.35;6.35;;;7.00;99.90;;;;;;5078498;28;20040;-89
2022/11/23 02:20:57;;;;;;;16.60;6.38;;;7.10;99.90;;;;;;5105808;28;20043;-90
2022/11/23 02:23:30;;;;;;;11.15;6.43;;;7.10;99.90;;;;;;5111616;28;20036;-90
2022/11/23 02:26:11;;;;;;;11.30;6.53;;;7.00;99.90;;;;;;5106066;28;20051;-90
2022/11/23 02:28:47;;;;;;;10.77;6.13;;;7.10;99.90;;;;;;5094509;28;20036;-89
2022/11/23 02:31:13;;;;;;;15.93;6.50;;;7.00;99.90;;;;;;5094025;28;20047;-89
2022/11/23 02:33:40;;;;;;;14.30;6.00;;;7.10;99.90;;;;;;5061663;28;20044;-89
2022/11/23 02:36:29;;;;;;;16.80;6.60;;;7.10;99.90;;;;;;5077523;28;20047;-89
2022/11/23 02:38:58;;;;;;;12.27;6.97;;;7.10;99.90;;;;;;5094008;28;20036;-89
2022/11/23 02:41:25;;;;;;;10.05;6.03;;;7.70;99.90;;;;;;5094051;28;20127;-89
2022/11/23 02:43:55;;;;;;;11.10;6.93;;;7.10;99.90;;;;;;5077814;28;20561;-89
2022/11/23 02:46:22;;;;;;;13.00;6.03;;;7.10;99.90;;;;;;5094500;28;20036;-89
2022/11/23 02:48:48;;;;;;;11.05;6.10;;;7.10;99.90;;;;;;5061465;28;20119;-89
2022/11/23 02:51:15;;;;;;;11.60;5.90;;;7.10;99.90;;;;;;5076834;28;20036;-89
2022/11/23 02:53:42;;;;;;;15.07;7.18;;;7.10;99.90;;;;;;5061538;28;20101;-89
2022/11/23 02:56:08;;;;;;;16.35;8.10;;;7.10;99.90;;;;;;5077071;28;20040;-90
2022/11/23 02:58:35;;;;;;;14.95;6.90;;;7.10;99.90;;;;;;5060964;28;20036;-89
2022/11/23 03:01:02;;;;;;;15.23;7.80;;;7.10;99.90;;;;;;5077026;28;20047;-89
2022/11/23 03:03:28;;;;;;;14.65;7.28;;;7.10;99.90;;;;;;5077313;28;20047;-90
2022/11/23 03:05:55;;;;;;;12.07;7.18;;;7.10;99.90;;;;;;5076969;28;20067;-89
2022/11/23 03:08:22;;;;;;;12.95;6.68;;;7.40;99.90;;;;;;5060812;28;20571;-89
2022/11/23 03:10:48;;;;;;;14.73;6.45;;;7.10;99.90;;;;;;5093911;28;20040;-89
2022/11/23 03:13:15;;;;;;;11.07;6.05;;;7.20;99.90;;;;;;5077177;28;20051;-90
2022/11/23 03:15:42;;;;;;;11.02;6.18;;;7.20;99.90;;;;;;5093707;28;20057;-89
2022/11/23 03:18:08;;;;;;;12.18;7.15;;;7.30;99.90;;;;;;5060665;28;20044;-90
2022/11/23 03:20:35;;;;;;;15.60;6.82;;;7.20;99.90;;;;;;5093539;28;20040;-90
2022/11/23 03:23:02;;;;;;;12.90;6.53;;;7.20;99.90;;;;;;5078765;28;20051;-90
2022/11/23 03:25:29;;;;;;;9.90;6.22;;;7.20;99.90;;;;;;5081299;28;20427;-89
2022/11/23 03:27:55;;;;;;;12.07;6.35;;;7.20;99.90;;;;;;5064817;28;20036;-82
2022/11/23 03:30:22;;;;;;;14.13;6.78;;;7.20;99.90;;;;;;5081231;28;20119;-89
2022/11/23 03:32:49;;;;;;;10.00;6.35;;;7.20;99.90;;;;;;5081118;28;20071;-89
2022/11/23 03:35:16;;;;;;;11.85;6.75;;;7.20;99.90;;;;;;5064729;28;20517;-90
2022/11/23 03:37:42;;;;;;;10.93;6.47;;;7.20;99.90;;;;;;5064367;28;20044;-89
2022/11/23 03:40:09;;;;;;;11.07;6.63;;;7.30;99.90;;;;;;5080440;28;20043;-88
2022/11/23 03:42:39;;;;;;;10.88;6.15;;;7.20;99.90;;;;;;5064759;28;20071;-89
2022/11/23 03:45:07;;;;;;;12.23;6.38;;;7.20;99.90;;;;;;5097067;28;20047;-89
2022/11/23 03:47:34;;;;;;;13.07;6.75;;;7.20;99.90;;;;;;5097282;28;20048;-89
2022/11/23 03:50:00;;;;;;;12.40;7.03;;;7.20;99.90;;;;;;5097239;28;20733;-87
2022/11/23 03:52:27;;;;;;;12.02;6.15;;;7.10;99.90;;;;;;5080396;28;20044;-89
2022/11/23 03:54:54;;;;;;;11.93;6.00;;;7.20;99.90;;;;;;5064156;28;20036;-89
2022/11/23 03:57:20;;;;;;;10.68;6.20;;;7.20;99.90;;;;;;5080661;28;20048;-89
2022/11/23 03:59:47;;;;;;;11.32;6.32;;;7.20;99.90;;;;;;5064253;28;20109;-89
2022/11/23 04:02:14;;;;;;;9.50;5.82;;;7.20;99.90;;;;;;5064130;28;20065;-89
2022/11/23 04:04:40;;;;;;;12.90;6.68;;;7.20;99.90;;;;;;5080034;28;20040;-89
2022/11/23 04:07:07;;;;;;;15.23;6.93;;;7.20;99.90;;;;;;5080585;28;20036;-88
2022/11/23 04:09:34;;;;;;;11.85;6.75;;;7.20;99.90;;;;;;5063697;28;20032;-89
2022/11/23 04:12:00;;;;;;;12.23;6.57;;;7.20;99.90;;;;;;5096703;28;20063;-85
2022/11/23 04:14:27;;;;;;;11.50;5.85;;;7.20;99.90;;;;;;5063219;28;20079;-88
2022/11/23 04:16:54;;;;;;;12.05;6.85;;;7.20;99.90;;;;;;5063285;28;20043;-89
2022/11/23 04:19:20;;;;;;;11.57;6.53;;;7.20;99.90;;;;;;5096563;28;20048;-88
2022/11/23 04:21:47;;;;;;;10.93;6.22;;;7.20;99.90;;;;;;5079874;28;20067;-87
2022/11/23 04:24:14;;;;;;;13.43;7.05;;;7.20;99.90;;;;;;5080184;28;20040;-89
2022/11/23 04:26:40;;;;;;;13.55;6.90;;;7.20;99.90;;;;;;5080131;28;20047;-89
2022/11/23 04:29:07;;;;;;;11.38;6.35;;;7.20;99.90;;;;;;5080150;28;20043;-89
2022/11/23 04:31:34;;;;;;;12.30;6.03;;;7.30;99.90;;;;;;5063481;28;20101;-88
2022/11/23 04:34:01;;;;;;;11.52;6.10;;;7.20;99.90;;;;;;5095627;28;20048;-88
2022/11/23 04:36:27;;;;;;;10.80;6.18;;;7.20;99.90;;;;;;5096538;28;20392;-88
2022/11/23 04:38:54;;;;;;;10.25;6.00;;;7.20;99.90;;;;;;5080120;28;20046;-89
2022/11/23 04:41:22;;;;;;;9.50;5.97;;;7.20;99.90;;;;;;5096139;28;20044;-87
2022/11/23 04:43:50;;;;;;;11.38;5.75;;;7.20;99.90;;;;;;5097344;28;20040;-89
2022/11/23 04:46:17;;;;;;;11.10;6.18;;;7.20;99.90;;;;;;5096605;28;20504;-89
2022/11/23 04:48:44;;;;;;;9.63;5.80;;;7.20;99.90;;;;;;5096224;28;20036;-89
2022/11/23 04:51:10;;;;;;;12.50;6.95;;;7.20;99.90;;;;;;5063191;28;20036;-88
2022/11/23 04:53:37;;;;;;;15.00;6.47;;;7.20;99.90;;;;;;5079518;28;20127;-88
2022/11/23 04:56:04;;;;;;;11.82;5.72;;;7.20;99.90;;;;;;5079221;28;20424;-89
2022/11/23 04:58:31;;;;;;;10.52;6.00;;;7.20;99.90;;;;;;5096031;28;20457;-89
2022/11/23 05:00:58;;;;;;;12.52;6.80;;;7.60;99.90;;;;;;5096311;28;20048;-89
2022/11/23 05:03:25;;;;;;;13.73;6.35;;;7.20;99.90;;;;;;5095716;28;20484;-89
2022/11/23 05:05:57;;;;;;;12.02;5.60;;;7.10;99.90;;;;;;5064119;28;20186;-88
2022/11/23 05:08:24;;;;;;;11.27;6.03;;;7.10;99.90;;;;;;5095981;28;20039;-89
2022/11/23 05:10:51;;;;;;;12.88;6.65;;;7.20;99.90;;;;;;5078971;28;20043;-89
2022/11/23 05:13:18;;;;;;;12.75;6.25;;;7.20;99.90;;;;;;5079129;28;20036;-89
2022/11/23 05:15:44;;;;;;;11.30;6.00;;;7.10;99.90;;;;;;5079062;28;20043;-89
2022/11/23 05:18:11;;;;;;;12.35;6.88;;;7.10;99.90;;;;;;5078876;28;20040;-83
2022/11/23 05:20:38;;;;;;;15.60;6.82;;;7.10;99.90;;;;;;5062304;28;20050;-88
2022/11/23 05:23:05;;;;;;;12.57;6.30;;;7.20;99.90;;;;;;5095091;28;20048;-89
2022/11/23 05:25:32;;;;;;;12.73;6.70;;;7.20;99.90;;;;;;5074822;28;20037;-89
2022/11/23 05:27:59;;;;;;;12.60;7.07;;;7.20;99.90;;;;;;5058986;28;20040;-88
2022/11/23 05:30:26;;;;;;;12.77;6.32;;;7.20;99.90;;;;;;5058553;28;20504;-89
2022/11/23 05:32:53;;;;;;;15.93;6.40;;;7.20;99.90;;;;;;5058722;28;20067;-89
2022/11/23 05:35:19;;;;;;;16.27;6.45;;;7.20;99.90;;;;;;5070083;28;20047;-89
2022/11/23 05:37:46;;;;;;;11.98;6.30;;;7.30;99.90;;;;;;5095169;28;20067;-89
2022/11/23 05:40:13;;;;;;;15.88;6.43;;;7.20;99.90;;;;;;5078459;28;20705;-89
2022/11/23 05:42:39;;;;;;;12.77;6.57;;;7.20;99.90;;;;;;5078428;28;20529;-87
2022/11/23 05:45:06;;;;;;;14.23;6.82;;;7.20;99.90;;;;;;5077973;28;20036;-89
2022/11/23 05:47:33;;;;;;;22.67;7.15;;;7.30;99.90;;;;;;5095480;28;20092;-88
2022/11/23 05:50:01;;;;;;;12.65;6.45;;;7.20;99.90;;;;;;5078375;28;20046;-87
2022/11/23 05:52:27;;;;;;;13.85;6.28;;;7.20;99.90;;;;;;5077778;28;20039;-89
2022/11/23 05:54:54;;;;;;;12.23;6.25;;;7.20;99.90;;;;;;5078155;28;20043;-88
2022/11/23 05:57:21;;;;;;;12.85;6.55;;;7.20;99.90;;;;;;5077879;28;20082;-88
2022/11/23 05:59:48;;;;;;;11.93;6.13;;;7.50;99.90;;;;;;5078387;28;20048;-88
2022/11/23 06:02:15;;;;;;;13.95;6.97;;;7.30;99.90;;;;;;5094399;28;20492;-88
2022/11/23 06:04:42;;;;;;;13.85;6.45;;;7.30;99.90;;;;;;5061280;28;20063;-87
2022/11/23 06:07:08;;;;;;;18.40;6.70;;;7.30;99.90;;;;;;5078877;28;20071;-89
2022/11/23 06:09:35;;;;;;;16.52;7.15;;;7.30;99.90;;;;;;5094939;28;20047;-88
2022/11/23 06:12:02;;;;;;;13.15;6.03;;;7.30;99.90;;;;;;5078587;28;20040;-89
2022/11/23 06:14:28;;;;;;;15.07;7.10;;;7.30;99.90;;;;;;5095682;28;20100;-89
2022/11/23 06:16:55;;;;;;;14.60;5.97;;;7.30;99.90;;;;;;5094429;28;20483;-88
2022/11/23 06:19:22;;;;;;;14.23;6.22;;;7.30;99.90;;;;;;5060781;28;20404;-88
2022/11/23 06:21:48;;;;;;;14.05;6.13;;;7.20;99.90;;;;;;5077638;28;20515;-88
2022/11/23 06:24:15;;;;;;;15.93;6.65;;;7.20;99.90;;;;;;5077131;28;20174;-89
2022/11/23 06:26:42;;;;;;;13.60;6.22;;;7.20;99.90;;;;;;5079701;28;20039;-88
2022/11/23 06:29:08;;;;;;;16.48;6.60;;;7.20;99.90;;;;;;5061058;28;20446;-88
2022/11/23 06:31:35;;;;;;;12.15;6.07;;;7.60;99.90;;;;;;5076724;28;20047;-89
2022/11/23 06:34:02;;;;;;;22.05;6.35;;;7.50;99.90;;;;;;5077804;28;20062;-89
2022/11/23 06:36:28;;;;;;;16.27;6.50;;;7.20;99.90;;;;;;5077826;28;20036;-88
2022/11/23 06:38:55;;;;;;;16.63;6.10;;;7.20;99.90;;;;;;5061861;28;20040;-88
2022/11/23 06:41:23;;;;;;;15.13;6.40;;;7.20;99.90;;;;;;5078084;28;20098;-88
2022/11/23 06:43:50;;;;;;;13.85;5.93;;;7.30;99.90;;;;;;5077333;28;20036;-89
2022/11/23 06:46:17;;;;;;;12.45;5.80;;;7.10;99.90;;;;;;5060890;28;20127;-88
2022/11/23 06:48:44;;;;;;;13.60;5.57;;;7.30;99.90;;;;;;5094162;28;20043;-88
2022/11/23 06:51:12;;;;;;;15.05;5.78;;;7.10;99.90;;;;;;5077448;28;20047;-87
2022/11/23 06:53:39;;;;;;;10.00;5.03;;;7.20;99.90;;;;;;5109925;28;20040;-88
2022/11/23 06:56:06;;;;;;;14.18;5.60;;;7.30;99.90;;;;;;5093661;28;20047;-87
2022/11/23 06:58:33;;;;;;;12.48;5.15;;;7.00;99.90;;;;;;5059983;28;20040;-88
2022/11/23 07:01:05;;;;;;;12.88;5.35;;;7.30;99.90;;;;;;5093413;28;20129;-88
2022/11/23 07:03:32;;;;;;;14.98;5.57;;;7.00;99.90;;;;;;5092955;28;20043;-87
2022/11/23 07:06:07;;;;;;;12.82;5.70;;;7.00;99.90;;;;;;5076509;28;20036;-88
2022/11/23 07:08:35;;;;;;;15.68;4.82;;;7.00;99.90;;;;;;5092956;28;20381;-88
2022/11/23 07:11:03;;;;;;;15.50;5.25;;;7.20;99.90;;;;;;5076385;28;20070;-88
2022/11/23 07:13:29;;;;;;;12.32;4.65;;;6.90;99.90;;;;;;5092611;28;20802;-86
2022/11/23 07:15:57;;;;;;;11.02;4.90;;;7.00;99.90;;;;;;5076473;28;20126;-86
2022/11/23 07:18:25;;;;;;;10.93;4.68;;;6.90;99.90;;;;;;5073551;28;20036;-87
2022/11/23 07:20:52;;;;;;;10.57;4.45;;;6.90;99.90;;;;;;5092774;28;20044;-90
2022/11/23 07:23:19;;;;;;;12.30;4.28;;;7.00;99.90;;;;;;5076257;28;20047;-86
2022/11/23 07:25:45;;;;;;;14.05;4.70;;;7.00;99.90;;;;;;5109265;28;20040;-86
2022/11/23 07:28:13;;;;;;;14.63;4.57;;;7.00;99.90;;;;;;5059859;28;20036;-86
2022/11/23 07:30:40;;;;;;;13.20;4.50;;;7.10;99.90;;;;;;5092474;28;20506;-86
2022/11/23 07:33:08;;;;;;;14.60;4.00;;;7.10;99.90;;;;;;5092593;28;20069;-86
2022/11/23 07:35:39;;;;;;;10.88;3.75;;;7.10;99.90;;;;;;5092444;28;20059;-86
2022/11/23 07:38:07;;;;;;;13.70;4.55;;;7.10;99.90;;;;;;5092859;28;20123;-86
2022/11/23 07:40:38;;;;;;;10.45;3.67;;;7.10;99.90;;;;;;5059862;28;20036;-86
2022/11/23 07:43:06;;;;;;;7.20;3.60;;;7.10;99.90;;;;;;5076056;28;20492;-86
2022/11/23 07:45:33;;;;;;;13.57;3.50;;;7.20;99.90;;;;;;5076230;28;20040;-87
2022/11/23 07:48:03;;;;;;;8.30;3.42;;;7.10;99.90;;;;;;5092530;28;20135;-86
2022/11/23 07:50:30;;;;;;;10.43;3.92;;;7.20;99.90;;;;;;5092348;28;20039;-86
2022/11/23 07:52:57;;;;;;;14.90;4.07;;;7.20;99.90;;;;;;5076585;28;20040;-87
2022/11/23 07:55:23;;;;;;;12.43;2.80;;;7.20;99.90;;;;;;5077007;28;20085;-88
2022/11/23 07:57:52;;;;;;;6.40;3.13;;;7.30;99.90;;;;;;5093289;28;20043;-87
2022/11/23 08:00:20;;;;;;;8.75;3.50;;;7.20;99.90;;;;;;5092681;28;20046;-84
2022/11/23 08:02:47;;;;;;;10.00;3.17;;;7.20;99.90;;;;;;5076260;28;20043;-87
2022/11/23 08:05:15;;;;;;;8.13;2.85;;;7.20;99.90;;;;;;5092893;28;20028;-87
2022/11/23 08:07:42;;;;;;;12.10;2.97;;;7.20;99.90;;;;;;5076188;28;20047;-87
2022/11/23 08:10:09;;;;;;;10.30;2.92;;;7.20;99.90;;;;;;5111634;28;20036;-87
2022/11/23 08:12:36;;;;;;;9.23;2.80;;;7.20;99.90;;;;;;5106948;28;20028;-86
2022/11/23 08:15:03;;;;;;;10.80;2.90;;;7.30;99.90;;;;;;5099653;28;20059;-87
2022/11/23 08:17:29;;;;;;;10.10;3.03;;;7.20;99.90;;;;;;5113311;28;20047;-86
2022/11/23 08:19:56;;;;;;;9.27;3.15;;;7.30;99.90;;;;;;5096070;28;20036;-88
2022/11/23 08:22:23;;;;;;;12.60;3.13;;;7.30;99.90;;;;;;5079207;28;20040;-88
2022/11/23 08:24:50;;;;;;;9.80;3.13;;;7.60;99.90;;;;;;5096105;28;20050;-87
2022/11/23 08:27:16;;;;;;;17.13;3.78;;;8.00;99.90;;;;;;5063804;28;20043;-87
2022/11/23 08:29:43;;;;;;;8.93;2.67;;;7.50;99.90;;;;;;5079917;28;20044;-87
2022/11/23 08:32:11;;;;;;;12.65;2.92;;;7.30;99.90;;;;;;5062943;28;20106;-87
2022/11/23 08:34:37;;;;;;;9.55;2.90;;;7.40;99.90;;;;;;5079474;28;20044;-88
2022/11/23 08:37:04;;;;;;;8.80;3.10;;;7.40;99.90;;;;;;5078869;28;20089;-89
2022/11/23 08:39:30;;;;;;;7.43;3.22;;;7.40;99.90;;;;;;5079283;28;20080;-87
2022/11/23 08:41:57;;;;;;;9.95;2.55;;;7.40;99.90;;;;;;5079500;28;20055;-88
2022/11/23 08:44:24;;;;;;;8.38;2.80;;;7.40;99.90;;;;;;5060542;28;20044;-88
2022/11/23 08:46:51;;;;;;;9.23;2.70;;;7.50;99.90;;;;;;5060614;28;20076;-87
2022/11/23 08:49:17;;;;;;;6.38;2.55;;;7.40;99.90;;;;;;5074071;28;20040;-90
2022/11/23 08:51:45;;;;;;;13.10;3.20;;;7.50;99.90;;;;;;5097573;28;20040;-90
2022/11/23 08:54:11;;;;;;;10.15;2.63;;;7.50;99.90;;;;;;5061926;28;20047;-87
2022/11/23 08:56:38;;;;;;;9.82;2.70;;;7.70;99.90;;;;;;5061359;28;20049;-88
2022/11/23 08:59:05;;;;;;;7.05;2.50;;;7.50;99.90;;;;;;5081306;28;20036;-90
2022/11/23 09:01:31;;;;;;;6.55;3.00;;;7.90;99.90;;;;;;5098657;28;20036;-88
2022/11/23 09:03:58;;;;;;;8.45;2.50;;;7.70;99.90;;;;;;5064528;28;20118;-87
2022/11/23 09:06:27;;;;;;;12.43;3.15;;;7.70;99.90;;;;;;5098850;28;20529;-90
2022/11/23 09:08:54;;;;;;;13.88;2.58;;;7.80;99.90;;;;;;5066496;28;20078;-89
2022/11/23 09:11:21;;;;;;;11.82;2.83;;;7.80;99.90;;;;;;5115331;28;20043;-88
2022/11/23 09:13:48;;;;;;;6.90;3.38;;;7.90;99.90;;;;;;5065882;28;20044;-90
2022/11/23 09:16:14;;;;;;;10.35;3.13;;;7.90;99.90;;;;;;5081683;28;20047;-88
2022/11/23 09:18:41;;;;;;;7.93;2.60;;;8.00;99.90;;;;;;5063280;28;20036;-88
2022/11/23 09:21:09;;;;;;;10.85;3.13;;;8.00;99.90;;;;;;5084039;28;20052;-89
2022/11/23 09:23:36;;;;;;;10.35;3.08;;;8.00;99.90;;;;;;5078192;28;20048;-89
2022/11/23 09:26:03;;;;;;;10.50;3.33;;;8.00;99.90;;;;;;5074811;28;20044;-90
2022/11/23 09:28:31;;;;;;;10.85;2.80;;;8.00;99.90;;;;;;5078754;28;20032;-89
2022/11/23 09:31:01;;;;;;;7.88;2.53;;;8.00;99.90;;;;;;5062804;28;20135;-89
2022/11/23 09:33:28;;;;;;;10.27;3.67;;;8.00;99.90;;;;;;5097706;28;20074;-90
2022/11/23 09:36:00;;;;;;;9.68;2.80;;;8.10;99.90;;;;;;5082704;28;20036;-88
2022/11/23 09:38:27;;;;;;;13.35;2.80;;;8.20;99.90;;;;;;5100419;28;20043;-88
2022/11/23 09:41:01;;;;;;;9.45;2.80;;;8.20;99.90;;;;;;5101866;28;20457;-89
2022/11/23 09:43:54;;;;;;;13.57;2.95;;;8.20;99.90;;;;;;5100057;28;20039;-89
2022/11/23 09:46:32;;;;;;;7.60;2.63;;;8.20;99.90;;;;;;5101635;28;20043;-89
2022/11/23 09:49:19;;;;;;;9.13;3.00;;;8.20;99.90;;;;;;5104365;28;20703;-87
2022/11/23 09:51:47;;;;;;;8.35;3.25;;;8.20;99.90;;;;;;5103559;28;20055;-89
2022/11/23 09:54:36;;;;;;;6.55;2.38;;;8.10;99.90;;;;;;5097224;28;20071;-89
2022/11/23 09:57:04;;;;;;;8.30;2.60;;;8.20;99.90;;;;;;5114611;28;20044;-90
2022/11/23 10:00:04;;;;;;;14.00;2.65;;;8.20;99.90;;;;;;5131281;28;20519;-88
2022/11/23 10:02:38;;;;;;;8.88;2.70;;;8.20;99.90;;;;;;5097410;28;20075;-89
2022/11/23 10:05:06;;;;;;;12.00;2.42;;;8.20;99.90;;;;;;5096916;28;20062;-87
2022/11/23 10:07:46;;;;;;;13.80;2.33;;;8.30;99.90;;;;;;5096773;28;20039;-89
2022/11/23 10:10:15;;;;;;;6.82;2.78;;;8.30;99.90;;;;;;5114016;28;20048;-90
2022/11/23 10:13:12;;;;;;;11.18;2.97;;;8.30;99.90;;;;;;5091435;28;20040;-89
2022/11/23 10:15:59;;;;;;;;;;;8.40;99.90;;;;;;5101854;28;20176;-88
2022/11/23 10:18:49;;;;;;;10.38;2.67;;;8.40;99.90;;;;;;5109882;28;19943;-88
2022/11/23 10:21:22;;;;;;;7.55;2.78;;;8.40;99.90;;;;;;5092752;28;20036;-90
2022/11/23 10:23:53;;;;;;;10.95;2.88;;;8.30;99.90;;;;;;5116797;28;20122;-87
2022/11/23 10:26:33;;;;;;;8.00;2.50;;;8.40;99.90;;;;;;5098774;28;20043;-88
2022/11/23 10:29:14;;;;;;;8.40;2.47;;;8.40;99.90;;;;;;5097275;28;20036;-90
2022/11/23 10:31:47;;;;;;;10.80;2.20;;;8.40;99.90;;;;;;5095942;28;20060;-91
2022/11/23 10:34:22;;;;;;;6.70;1.92;;;8.30;99.90;;;;;;5113379;28;20044;-91
2022/11/23 10:36:49;;;;;;;7.97;1.98;;;8.30;99.90;;;;;;5096854;28;20071;-89
2022/11/23 10:39:26;;;;;;;8.27;2.00;;;8.30;99.90;;;;;;5096847;28;20040;-91
2022/11/23 10:42:01;;;;;;;10.68;2.22;;;8.30;99.90;;;;;;5109718;28;20089;-90
2022/11/23 10:44:36;;;;;;;6.07;2.10;;;8.30;99.90;;;;;;5096001;28;20088;-90
2022/11/23 10:47:04;;;;;;;4.72;2.05;;;8.30;99.90;;;;;;5112830;28;20040;-90
2022/11/23 10:49:34;;;;;;;11.60;2.42;;;8.30;99.90;;;;;;5084589;28;20043;-89
2022/11/23 10:52:26;;;;;;;8.70;2.10;;;8.30;99.90;;;;;;5082021;28;20071;-90
2022/11/23 10:54:55;;;;;;;9.98;2.22;;;8.40;99.90;;;;;;5102137;28;20408;-84
2022/11/23 10:57:32;;;;;;;9.90;2.20;;;8.40;99.90;;;;;;5097003;28;20048;-91
2022/11/23 11:00:14;;;;;;;6.57;2.08;;;8.40;99.90;;;;;;5096783;28;20082;-91
2022/11/23 11:02:50;;;;;;;10.27;2.15;;;8.40;99.90;;;;;;5096356;28;20496;-92
2022/11/23 11:05:36;;;;;;;10.25;2.25;;;8.50;99.90;;;;;;5095888;28;20048;-90
2022/11/23 11:08:14;;;;;;;7.85;2.10;;;8.50;99.90;;;;;;5096573;28;20040;-90
2022/11/23 11:10:48;;;;;;;5.25;2.08;;;8.50;99.90;;;;;;5112500;28;20039;-90
2022/11/23 11:13:26;;;;;;;10.77;2.22;;;8.50;99.90;;;;;;5096506;28;20047;-91
2022/11/23 11:16:05;;;;;;;12.00;2.30;;;8.50;99.90;;;;;;5093152;28;20067;-88
2022/11/23 11:18:36;;;;;;;13.73;2.40;;;8.60;99.90;;;;;;5096530;28;20050;-88
2022/11/23 11:21:06;;;;;;;10.05;2.05;;;8.60;99.90;;;;;;5110422;28;20515;-88
2022/11/23 11:23:37;;;;;;;10.60;2.25;;;8.70;99.90;;;;;;5110634;28;20044;-88
2022/11/23 11:26:17;;;;;;;11.63;2.40;;;8.70;99.90;;;;;;5092973;28;20036;-88
2022/11/23 11:28:48;;;;;;;6.28;2.00;;;8.70;99.90;;;;;;5105013;28;20028;-88
2022/11/23 11:31:33;;;;;;;6.22;1.77;;;8.60;99.90;;;;;;5084889;28;20500;-89
2022/11/23 11:34:22;;;;;;;7.13;2.03;;;8.60;99.90;;;;;;5097116;28;20044;-88
2022/11/23 11:37:11;;;;;;;7.43;2.10;;;8.60;99.90;;;;;;5091264;28;20044;-88
2022/11/23 11:39:44;;;;;;;7.63;2.10;;;8.60;99.90;;;;;;5102748;28;20483;-88
2022/11/23 11:42:29;;;;;;;10.82;2.88;;;8.70;99.90;;;;;;5090094;28;20055;-88
2022/11/23 11:44:57;;;;;;;8.95;1.63;;;8.70;99.90;;;;;;5096609;28;20429;-89
2022/11/23 11:47:40;;;;;;;16.08;2.40;;;8.70;99.90;;;;;;5079667;28;20044;-84
2022/11/23 11:50:24;;;;;;;6.63;2.42;;;8.70;99.90;;;;;;5095805;28;20044;-82
2022/11/23 11:52:57;;;;;;;14.07;2.88;;;8.70;99.90;;;;;;5098436;28;20032;-92
2022/11/23 11:55:44;;;;;;;12.50;2.40;;;8.80;99.90;;;;;;5098414;28;20032;-91
2022/11/23 11:58:15;;;;;;;11.68;2.22;;;8.80;99.90;;;;;;5091178;28;20036;-88
2022/11/23 12:00:42;;;;;;;10.32;2.00;;;8.80;99.90;;;;;;5097650;28;20036;-92
2022/11/23 12:03:18;;;;;;;8.10;1.92;;;8.80;99.90;;;;;;5090571;28;20169;-89
2022/11/23 12:05:51;;;;;;;10.43;2.10;;;8.80;99.90;;;;;;5077038;28;20485;-91
2022/11/23 12:08:29;;;;;;;10.20;2.33;;;8.80;99.90;;;;;;5095434;28;20033;-91
2022/11/23 12:10:59;;;;;;;5.85;1.52;;;8.90;99.90;;;;;;5097233;28;20044;-92
2022/11/23 12:13:32;;;;;;;5.97;1.65;;;8.90;99.90;;;;;;5114456;28;20101;-92
2022/11/23 12:16:14;;;;;;;8.40;2.10;;;8.80;99.90;;;;;;5096480;28;20035;-87
2022/11/23 12:19:01;;;;;;;9.88;1.70;;;8.80;99.90;;;;;;5113173;28;20553;-92
2022/11/23 12:21:56;;;;;;;9.48;1.70;;;8.90;99.90;;;;;;5101373;28;20628;-90
2022/11/23 12:24:27;;;;;;;7.05;1.75;;;8.90;99.90;;;;;;5089627;28;20032;-88
2022/11/23 12:27:09;;;;;;;6.40;1.85;;;8.90;99.90;;;;;;5092821;28;20488;-87
2022/11/23 12:30:13;;;;;;;13.13;1.95;;;9.00;99.90;;;;;;5096310;28;20389;-85
2022/11/23 12:33:08;;;;;;;8.68;2.00;;;9.00;99.90;;;;;;5075794;28;20049;-87
2022/11/23 12:35:46;;;;;;;8.43;2.15;;;9.10;99.90;;;;;;5075823;28;20098;-87
2022/11/23 12:38:19;;;;;;;11.00;2.85;;;9.10;99.90;;;;;;5084377;28;20484;-87
2022/11/23 12:41:18;;;;;;;9.90;2.33;;;9.20;99.90;;;;;;5115081;28;20031;-89
2022/11/23 12:44:09;;;;;;;7.63;2.42;;;9.10;99.90;;;;;;5104200;28;20043;-88
2022/11/23 12:47:01;;;;;;;10.75;2.80;;;9.10;99.90;;;;;;5108371;28;20399;-86
2022/11/23 12:49:52;;;;;;;7.95;2.70;;;9.10;99.90;;;;;;5092798;28;20036;-87
2022/11/23 12:52:40;;;;;;;10.57;2.50;;;9.10;99.90;;;;;;5092535;28;20127;-88
2022/11/23 12:55:28;;;;;;;12.57;2.85;;;9.00;99.90;;;;;;5085545;28;20032;-86
2022/11/23 12:58:03;;;;;;;7.53;2.30;;;9.00;99.90;;;;;;5102989;28;20039;-86
2022/11/23 13:00:43;;;;;;;8.95;2.20;;;9.00;99.90;;;;;;5112809;28;20126;-86
2022/11/23 13:03:23;;;;;;;6.32;1.85;;;9.10;99.90;;;;;;5094941;28;20048;-88
2022/11/23 13:06:08;;;;;;;14.43;2.05;;;9.20;99.90;;;;;;5096034;28;20084;-86
2022/11/23 13:08:53;;;;;;;6.60;2.50;;;9.20;99.90;;;;;;5095504;28;20040;-88